Time;durP1;ratioP1;P1;durP2;ratioP2;P2;SDS_P1;SDS_P2;PMS_P1;PMS_P2;Temp;Humidity;BMP_temperature;BMP_pressure;BME280_temperature;BME280_humidity;BME280_pressure;Samples;Min_cycle;Max_cycle;Signal;HPM_P1;HPM_P2
2023/02/11 00:00:49;;;;;;;59.30;43.95;;;;;;;;;;5075847;28;20264;-78
2023/02/11 00:03:16;;;;;;;49.77;39.37;;;;;;;;;;5075290;28;20623;-78
2023/02/11 00:05:44;;;;;;;69.70;46.90;;;;;;;;;;5075028;28;20493;-78
2023/02/11 00:08:15;;;;;;;55.95;44.38;;;;;;;;;;5075409;28;20682;-78
2023/02/11 00:10:45;;;;;;;35.22;31.83;;;;;;;;;;5075390;28;20198;-78
2023/02/11 00:13:12;;;;;;;63.60;41.33;;;;;;;;;;5074714;28;20214;-79
2023/02/11 00:15:39;;;;;;;55.60;42.60;;;;;;;;;;5075308;28;20230;-78
2023/02/11 00:18:06;;;;;;;45.25;35.63;;;;;;;;;;5074804;28;20522;-79
2023/02/11 00:20:33;;;;;;;49.57;35.13;;;;;;;;;;5075486;28;20203;-78
2023/02/11 00:23:00;;;;;;;64.10;46.13;;;;;;;;;;5074914;28;20423;-78
2023/02/11 00:25:27;;;;;;;65.13;48.80;;;;;;;;;;5075446;28;20283;-78
2023/02/11 00:27:55;;;;;;;47.05;37.30;;;;;;;;;;5075321;28;20260;-78
2023/02/11 00:30:22;;;;;;;33.90;30.52;;;;;;;;;;5075198;28;20230;-78
2023/02/11 00:32:49;;;;;;;39.35;33.13;;;;;;;;;;5074533;28;20264;-78
2023/02/11 00:35:16;;;;;;;61.55;47.10;;;;;;;;;;5074286;28;20761;-78
2023/02/11 00:37:43;;;;;;;37.30;31.30;;;;;;;;;;5075068;28;20210;-78
2023/02/11 00:40:11;;;;;;;59.40;44.33;;;;;;;;;;5074886;28;20210;-78
2023/02/11 00:42:38;;;;;;;57.05;43.80;;;;;;;;;;5074370;28;20549;-78
2023/02/11 00:45:08;;;;;;;66.85;43.20;;;;;;;;;;5074926;28;20276;-78
2023/02/11 00:47:35;;;;;;;42.55;37.80;;;;;;;;;;5074229;28;20242;-78
2023/02/11 00:50:04;;;;;;;62.78;40.88;;;;;;;;;;5074690;28;20223;-78
2023/02/11 00:52:31;;;;;;;61.87;45.73;;;;;;;;;;5074330;28;20210;-78
2023/02/11 00:54:58;;;;;;;51.13;41.85;;;;;;;;;;5074888;28;20447;-79
2023/02/11 00:57:25;;;;;;;69.53;48.33;;;;;;;;;;5074492;28;20721;-78
2023/02/11 00:59:52;;;;;;;53.17;42.80;;;;;;;;;;5074702;28;20542;-78
2023/02/11 01:02:20;;;;;;;58.95;43.60;;;;;;;;;;5073896;28;20206;-78
2023/02/11 01:04:47;;;;;;;48.70;38.88;;;;;;;;;;5073884;28;20283;-79
2023/02/11 01:07:14;;;;;;;81.30;54.17;;;;;;;;;;5074226;28;20601;-78
2023/02/11 01:09:41;;;;;;;46.90;37.35;;;;;;;;;;5074368;28;20225;-78
2023/02/11 01:12:08;;;;;;;65.53;47.80;;;;;;;;;;5074549;28;20203;-78
2023/02/11 01:14:35;;;;;;;65.93;49.10;;;;;;;;;;5074285;28;20632;-78
2023/02/11 01:17:02;;;;;;;66.47;45.93;;;;;;;;;;5074294;28;20206;-78
2023/02/11 01:19:30;;;;;;;62.57;48.03;;;;;;;;;;5074432;28;20498;-78
2023/02/11 01:21:57;;;;;;;50.80;40.20;;;;;;;;;;5073064;28;20467;-78
2023/02/11 01:24:24;;;;;;;37.40;33.65;;;;;;;;;;5073729;28;20942;-78
2023/02/11 01:26:51;;;;;;;69.22;49.85;;;;;;;;;;5074065;28;20207;-78
2023/02/11 01:29:18;;;;;;;57.33;45.47;;;;;;;;;;5073926;28;20272;-78
2023/02/11 01:31:45;;;;;;;52.43;41.27;;;;;;;;;;5073551;28;20210;-78
2023/02/11 01:34:12;;;;;;;68.35;50.92;;;;;;;;;;5073448;28;20476;-78
2023/02/11 01:36:40;;;;;;;55.38;44.90;;;;;;;;;;5074064;28;20223;-78
2023/02/11 01:39:08;;;;;;;66.70;48.72;;;;;;;;;;5073751;28;20199;-79
2023/02/11 01:41:35;;;;;;;50.00;38.55;;;;;;;;;;5073494;28;20210;-78
2023/02/11 01:44:17;;;;;;;69.75;50.97;;;;;;;;;;5073904;28;20257;-78
2023/02/11 01:46:44;;;;;;;53.03;44.95;;;;;;;;;;5072561;28;20272;-78
2023/02/11 01:49:13;;;;;;;42.40;37.40;;;;;;;;;;5073292;28;20684;-79
2023/02/11 01:51:43;;;;;;;66.93;47.33;;;;;;;;;;5073163;28;20455;-78
2023/02/11 01:59:45;;;;;;;77.10;52.83;;;;;;;;;;5073261;28;20749;-79
2023/02/11 02:02:14;;;;;;;80.65;55.30;;;;;;;;;;5073156;28;20219;-78
2023/02/11 02:04:45;;;;;;;65.57;50.58;;;;;;;;;;5073349;28;20187;-78
2023/02/11 02:07:18;;;;;;;75.38;52.50;;;;;;;;;;5073749;28;20194;-78
2023/02/11 02:09:49;;;;;;;79.45;54.33;;;;;;;;;;5073624;28;20211;-78
2023/02/11 02:12:16;;;;;;;78.43;56.60;;;;;;;;;;5073334;28;20217;-78
2023/02/11 02:14:43;;;;;;;83.17;56.70;;;;;;;;;;5072819;28;20772;-78
2023/02/11 02:17:14;;;;;;;74.55;55.45;;;;;;;;;;5073348;28;20415;-79
2023/02/11 02:19:58;;;;;;;84.27;54.53;;;;;;;;;;5073647;28;20191;-78
2023/02/11 02:22:42;;;;;;;93.47;55.40;;;;;;;;;;5072738;28;20877;-80
2023/02/11 02:25:19;;;;;;;69.43;50.97;;;;;;;;;;5073944;28;20234;-78
2023/02/11 02:27:49;;;;;;;73.53;53.07;;;;;;;;;;5073594;28;20418;-78
2023/02/11 02:30:31;;;;;;;77.17;54.03;;;;;;;;;;5073507;28;20459;-78
2023/02/11 02:33:06;;;;;;;79.65;54.63;;;;;;;;;;5055916;28;20451;-79
2023/02/11 02:35:38;;;;;;;75.50;52.10;;;;;;;;;;5073270;28;20223;-78
2023/02/11 02:38:08;;;;;;;79.43;54.40;;;;;;;;;;5073422;28;20199;-78
2023/02/11 02:40:38;;;;;;;68.53;50.20;;;;;;;;;;5073383;28;20217;-78
2023/02/11 02:43:07;;;;;;;51.53;40.92;;;;;;;;;;5072546;28;20935;-78
2023/02/11 02:45:34;;;;;;;69.50;50.97;;;;;;;;;;5072451;28;20227;-78
2023/02/11 02:48:01;;;;;;;69.90;48.80;;;;;;;;;;5073221;28;20284;-78
2023/02/11 02:50:32;;;;;;;60.05;49.60;;;;;;;;;;5072771;28;20281;-79
2023/02/11 02:53:05;;;;;;;72.97;48.22;;;;;;;;;;5072825;28;20194;-78
2023/02/11 02:55:40;;;;;;;72.57;49.27;;;;;;;;;;5073132;28;20219;-78
2023/02/11 02:58:25;;;;;;;62.28;44.13;;;;;;;;;;5076173;28;20464;-78
2023/02/11 03:00:55;;;;;;;64.50;49.45;;;;;;;;;;5076883;28;20251;-78
2023/02/11 03:03:27;;;;;;;55.60;46.10;;;;;;;;;;5075744;28;20267;-78
2023/02/11 03:05:57;;;;;;;65.65;47.22;;;;;;;;;;5076435;28;20530;-79
2023/02/11 03:08:28;;;;;;;62.33;44.83;;;;;;;;;;5076262;28;20210;-78
2023/02/11 03:10:55;;;;;;;65.35;49.72;;;;;;;;;;5076785;28;20264;-78
2023/02/11 03:13:25;;;;;;;65.70;51.50;;;;;;;;;;5076100;28;20667;-78
2023/02/11 03:15:54;;;;;;;67.00;50.22;;;;;;;;;;5076551;28;20230;-78
2023/02/11 03:18:22;;;;;;;68.18;50.75;;;;;;;;;;5075878;28;20264;-77
2023/02/11 03:20:51;;;;;;;77.00;52.72;;;;;;;;;;5076381;28;20206;-78
2023/02/11 03:23:24;;;;;;;66.47;46.38;;;;;;;;;;5075887;28;20256;-78
2023/02/11 03:25:53;;;;;;;64.43;50.13;;;;;;;;;;5076338;28;20237;-78
2023/02/11 03:28:26;;;;;;;65.25;49.20;;;;;;;;;;5076577;28;20214;-78
2023/02/11 03:30:55;;;;;;;56.42;46.47;;;;;;;;;;5076191;28;20721;-78
2023/02/11 03:33:25;;;;;;;66.25;49.42;;;;;;;;;;5076198;28;20237;-78
2023/02/11 03:35:54;;;;;;;72.00;48.95;;;;;;;;;;5075593;28;20271;-78
2023/02/11 03:38:25;;;;;;;70.68;50.17;;;;;;;;;;5075924;28;20289;-78
2023/02/11 03:40:54;;;;;;;54.45;45.67;;;;;;;;;;5076143;28;20206;-78
2023/02/11 03:43:23;;;;;;;58.95;48.55;;;;;;;;;;5075308;28;20214;-79
2023/02/11 03:45:51;;;;;;;45.33;40.03;;;;;;;;;;5075916;28;20475;-78
2023/02/11 03:48:21;;;;;;;61.10;49.03;;;;;;;;;;5076120;28;20256;-79
2023/02/11 03:50:49;;;;;;;64.22;47.65;;;;;;;;;;5076025;28;20223;-78
2023/02/11 03:53:16;;;;;;;60.10;44.47;;;;;;;;;;5075500;28;20256;-78
2023/02/11 03:55:45;;;;;;;57.90;48.08;;;;;;;;;;5075101;28;20566;-79
2023/02/11 03:58:12;;;;;;;59.30;48.60;;;;;;;;;;5075644;28;20732;-78
2023/02/11 04:00:41;;;;;;;55.75;45.08;;;;;;;;;;5075886;28;20199;-79
2023/02/11 04:03:08;;;;;;;70.10;49.13;;;;;;;;;;5074704;28;20218;-79
2023/02/11 04:05:35;;;;;;;41.10;37.00;;;;;;;;;;5075790;28;20227;-79
2023/02/11 04:08:02;;;;;;;54.70;42.90;;;;;;;;;;5075208;28;20202;-78
2023/02/11 04:10:29;;;;;;;48.13;40.03;;;;;;;;;;5075349;28;20780;-78
2023/02/11 04:12:57;;;;;;;55.83;45.85;;;;;;;;;;5075158;28;20458;-78
2023/02/11 04:15:24;;;;;;;58.25;45.53;;;;;;;;;;5074657;28;20638;-79
2023/02/11 04:17:52;;;;;;;47.25;38.38;;;;;;;;;;5075452;28;20268;-79
2023/02/11 04:20:19;;;;;;;126.20;69.68;;;;;;;;;;5075351;28;20543;-78
2023/02/11 04:22:46;;;;;;;92.10;61.78;;;;;;;;;;5074766;28;20240;-78
2023/02/11 04:25:13;;;;;;;52.15;44.55;;;;;;;;;;5075253;28;20227;-79
2023/02/11 04:27:40;;;;;;;33.80;30.50;;;;;;;;;;5074734;28;20752;-78
2023/02/11 04:30:09;;;;;;;47.53;39.57;;;;;;;;;;5075395;28;20220;-78
2023/02/11 04:32:36;;;;;;;42.53;36.65;;;;;;;;;;5074631;28;20461;-78
2023/02/11 04:35:03;;;;;;;44.75;38.80;;;;;;;;;;5075219;28;20223;-78
2023/02/11 04:37:30;;;;;;;50.05;42.45;;;;;;;;;;5075231;28;20214;-78
2023/02/11 04:39:57;;;;;;;51.85;46.15;;;;;;;;;;5075071;28;20203;-78
2023/02/11 04:42:24;;;;;;;56.17;45.65;;;;;;;;;;5074678;28;20204;-78
2023/02/11 04:44:51;;;;;;;49.80;36.95;;;;;;;;;;5074234;28;20222;-79
2023/02/11 04:47:20;;;;;;;51.60;41.60;;;;;;;;;;5074968;28;20195;-78
2023/02/11 04:49:47;;;;;;;53.42;41.40;;;;;;;;;;5074765;28;20226;-78
2023/02/11 04:52:14;;;;;;;54.20;40.83;;;;;;;;;;5073701;28;20207;-78
2023/02/11 04:54:41;;;;;;;47.57;39.90;;;;;;;;;;5074634;28;20426;-79
2023/02/11 04:57:08;;;;;;;38.67;32.85;;;;;;;;;;5074845;28;20507;-78
2023/02/11 04:59:35;;;;;;;49.85;37.92;;;;;;;;;;5074755;28;20209;-78
2023/02/11 05:02:03;;;;;;;48.33;32.73;;;;;;;;;;5073384;28;20214;-79
2023/02/11 05:04:31;;;;;;;36.92;33.00;;;;;;;;;;5073851;28;20435;-79
2023/02/11 05:06:58;;;;;;;56.73;41.63;;;;;;;;;;5074566;28;20210;-78
2023/02/11 05:09:25;;;;;;;43.70;38.90;;;;;;;;;;5074542;28;20426;-78
2023/02/11 05:11:52;;;;;;;58.67;44.10;;;;;;;;;;5073699;28;20790;-78
2023/02/11 05:14:19;;;;;;;39.42;35.20;;;;;;;;;;5074226;28;20667;-78
2023/02/11 05:16:46;;;;;;;54.97;42.65;;;;;;;;;;5073278;28;20230;-79
2023/02/11 05:19:13;;;;;;;60.78;43.30;;;;;;;;;;5073387;28;20203;-79
2023/02/11 05:21:41;;;;;;;51.90;42.27;;;;;;;;;;5073281;28;20203;-78
2023/02/11 05:24:09;;;;;;;38.20;34.28;;;;;;;;;;5074257;28;20435;-79
2023/02/11 05:26:36;;;;;;;41.00;34.23;;;;;;;;;;5073543;28;20277;-78
2023/02/11 05:29:03;;;;;;;48.57;39.83;;;;;;;;;;5074147;28;20407;-78
2023/02/11 05:31:30;;;;;;;53.63;42.10;;;;;;;;;;5073532;28;20462;-78
2023/02/11 05:33:57;;;;;;;51.90;41.80;;;;;;;;;;5073961;28;20449;-78
2023/02/11 05:36:24;;;;;;;50.80;41.25;;;;;;;;;;5073872;28;20754;-78
2023/02/11 05:38:52;;;;;;;50.33;42.50;;;;;;;;;;5074073;28;20202;-77
2023/02/11 05:41:19;;;;;;;50.65;43.08;;;;;;;;;;5072945;28;20440;-78
2023/02/11 05:43:48;;;;;;;56.20;43.93;;;;;;;;;;5073922;28;20729;-78
2023/02/11 05:46:15;;;;;;;54.30;43.30;;;;;;;;;;5073602;28;20525;-78
2023/02/11 05:48:42;;;;;;;52.83;44.38;;;;;;;;;;5074110;28;20264;-78
2023/02/11 05:51:09;;;;;;;41.38;36.85;;;;;;;;;;5073918;28;20625;-78
2023/02/11 05:53:36;;;;;;;49.28;42.88;;;;;;;;;;5073625;28;20254;-78
2023/02/11 05:56:05;;;;;;;51.10;41.73;;;;;;;;;;5073060;28;20279;-78
2023/02/11 05:58:33;;;;;;;63.53;44.17;;;;;;;;;;5073971;28;20604;-78
2023/02/11 06:00:59;;;;;;;53.27;43.50;;;;;;;;;;5073694;28;20927;-78
2023/02/11 06:03:26;;;;;;;58.47;44.20;;;;;;;;;;5072583;28;20863;-78
2023/02/11 06:05:53;;;;;;;56.83;40.15;;;;;;;;;;5072922;28;20485;-78
2023/02/11 06:08:20;;;;;;;42.10;34.20;;;;;;;;;;5073634;28;20218;-79
2023/02/11 06:10:47;;;;;;;56.20;43.67;;;;;;;;;;5073288;28;20284;-78
2023/02/11 06:13:17;;;;;;;55.33;44.37;;;;;;;;;;5072811;28;20939;-78
2023/02/11 06:15:44;;;;;;;51.33;42.53;;;;;;;;;;5072968;28;20541;-79
2023/02/11 06:18:11;;;;;;;47.63;37.40;;;;;;;;;;5073293;28;20446;-78
2023/02/11 06:20:40;;;;;;;60.83;44.93;;;;;;;;;;5073905;28;20984;-78
2023/02/11 06:23:07;;;;;;;56.80;46.23;;;;;;;;;;5073101;28;20425;-78
2023/02/11 06:25:34;;;;;;;50.78;43.72;;;;;;;;;;5073302;28;20484;-78
2023/02/11 06:28:01;;;;;;;56.22;42.53;;;;;;;;;;5073659;28;20204;-78
2023/02/11 06:30:30;;;;;;;49.55;39.80;;;;;;;;;;5073144;28;20695;-78
2023/02/11 06:32:57;;;;;;;59.67;47.80;;;;;;;;;;5076207;28;20206;-78
2023/02/11 06:35:24;;;;;;;60.17;46.83;;;;;;;;;;5077368;28;20554;-78
2023/02/11 06:37:52;;;;;;;56.27;45.17;;;;;;;;;;5077284;28;20207;-78
2023/02/11 06:40:19;;;;;;;53.07;44.17;;;;;;;;;;5077364;28;20454;-78
2023/02/11 06:42:46;;;;;;;56.73;46.17;;;;;;;;;;5081333;28;20470;-79
2023/02/11 06:45:13;;;;;;;51.90;44.93;;;;;;;;;;5078449;28;20520;-79
2023/02/11 06:47:42;;;;;;;60.03;47.50;;;;;;;;;;5079642;28;20452;-82
2023/02/11 06:50:11;;;;;;;67.30;46.67;;;;;;;;;;5080075;28;20823;-79
2023/02/11 06:52:38;;;;;;;64.85;50.65;;;;;;;;;;5078463;28;20452;-79
2023/02/11 06:55:05;;;;;;;59.47;47.38;;;;;;;;;;5078103;28;20223;-78
2023/02/11 06:57:32;;;;;;;57.20;44.60;;;;;;;;;;5079210;28;20199;-79
2023/02/11 06:59:59;;;;;;;60.28;46.47;;;;;;;;;;5078955;28;20265;-79
2023/02/11 07:02:26;;;;;;;61.50;49.83;;;;;;;;;;5077422;28;21489;-79
2023/02/11 07:04:55;;;;;;;54.97;44.63;;;;;;;;;;5078464;28;20461;-79
2023/02/11 07:07:22;;;;;;;54.73;43.57;;;;;;;;;;5078652;28;20490;-79
2023/02/11 07:09:49;;;;;;;58.22;45.95;;;;;;;;;;5078808;28;20454;-79
2023/02/11 07:12:16;;;;;;;64.10;43.20;;;;;;;;;;5077888;28;20249;-78
2023/02/11 07:14:43;;;;;;;53.80;42.87;;;;;;;;;;5078081;28;20469;-79
2023/02/11 07:17:10;;;;;;;69.93;48.43;;;;;;;;;;5077425;28;20421;-79
2023/02/11 07:19:37;;;;;;;61.60;47.60;;;;;;;;;;5078071;28;20434;-79
2023/02/11 07:22:05;;;;;;;58.88;48.00;;;;;;;;;;5078523;28;20441;-79
2023/02/11 07:24:32;;;;;;;76.97;49.93;;;;;;;;;;5078553;28;20203;-80
2023/02/11 07:26:59;;;;;;;72.68;52.03;;;;;;;;;;5077823;28;20467;-79
2023/02/11 07:29:26;;;;;;;59.30;42.92;;;;;;;;;;5078619;28;20252;-79
2023/02/11 07:31:53;;;;;;;68.93;51.70;;;;;;;;;;5077559;28;20230;-79
2023/02/11 07:34:20;;;;;;;70.25;49.08;;;;;;;;;;5078565;28;20206;-79
2023/02/11 07:36:47;;;;;;;65.38;53.10;;;;;;;;;;5077968;28;20231;-79
2023/02/11 07:39:16;;;;;;;72.22;52.05;;;;;;;;;;5078564;28;20242;-79
2023/02/11 07:41:43;;;;;;;70.68;49.47;;;;;;;;;;5078016;28;20657;-79
2023/02/11 07:44:10;;;;;;;63.73;49.40;;;;;;;;;;5076318;28;20260;-76
2023/02/11 07:46:41;;;;;;;72.40;51.13;;;;;;;;;;5075082;28;20490;-75
2023/02/11 07:49:08;;;;;;;69.67;47.80;;;;;;;;;;5076267;28;20646;-76
2023/02/11 07:51:35;;;;;;;57.10;42.13;;;;;;;;;;5076426;28;20466;-79
2023/02/11 07:54:02;;;;;;;67.13;49.30;;;;;;;;;;5078107;28;20534;-79
2023/02/11 07:56:31;;;;;;;75.63;52.27;;;;;;;;;;5077635;28;20707;-78
2023/02/11 07:59:01;;;;;;;68.13;49.47;;;;;;;;;;5076262;28;20453;-76
2023/02/11 08:01:28;;;;;;;66.10;53.40;;;;;;;;;;5075169;28;20253;-77
2023/02/11 08:03:55;;;;;;;77.10;52.80;;;;;;;;;;5075834;28;20460;-76
2023/02/11 08:06:24;;;;;;;68.45;49.60;;;;;;;;;;5075694;28;20477;-76
2023/02/11 08:08:51;;;;;;;56.27;45.10;;;;;;;;;;5075588;28;20620;-76
2023/02/11 08:11:20;;;;;;;66.43;50.20;;;;;;;;;;5074939;28;20497;-78
2023/02/11 08:13:49;;;;;;;69.93;48.80;;;;;;;;;;5075834;28;20492;-76
2023/02/11 08:16:18;;;;;;;72.73;51.07;;;;;;;;;;5074652;28;20459;-76
2023/02/11 08:18:45;;;;;;;79.10;50.87;;;;;;;;;;5075115;28;20930;-76
2023/02/11 08:21:12;;;;;;;69.93;46.67;;;;;;;;;;5075270;28;20853;-76
2023/02/11 08:23:40;;;;;;;78.78;52.22;;;;;;;;;;5074972;28;20503;-76
2023/02/11 08:26:08;;;;;;;73.13;44.55;;;;;;;;;;5075261;28;20276;-76
2023/02/11 08:28:35;;;;;;;77.10;53.03;;;;;;;;;;5075363;28;20199;-76
2023/02/11 08:31:06;;;;;;;72.93;49.47;;;;;;;;;;5075076;28;20223;-76
2023/02/11 08:33:34;;;;;;;88.17;53.73;;;;;;;;;;5073860;28;20341;-76
2023/02/11 08:36:02;;;;;;;51.50;37.87;;;;;;;;;;5074868;28;20443;-77
2023/02/11 08:38:29;;;;;;;74.97;52.03;;;;;;;;;;5074719;28;20428;-76
2023/02/11 08:40:56;;;;;;;86.95;51.65;;;;;;;;;;5075686;28;20203;-77
2023/02/11 08:43:23;;;;;;;75.43;52.60;;;;;;;;;;5073890;28;20267;-77
2023/02/11 08:45:50;;;;;;;74.90;51.63;;;;;;;;;;5074573;28;20444;-77
2023/02/11 08:48:18;;;;;;;67.75;48.50;;;;;;;;;;5074760;28;20456;-76
2023/02/11 08:50:45;;;;;;;57.20;39.73;;;;;;;;;;5074801;28;20206;-76
2023/02/11 08:53:12;;;;;;;71.67;50.40;;;;;;;;;;5074335;28;20445;-76
2023/02/11 08:55:39;;;;;;;52.03;37.83;;;;;;;;;;5073662;28;20489;-76
2023/02/11 08:58:06;;;;;;;66.90;49.20;;;;;;;;;;5073692;28;20503;-76
2023/02/11 09:00:33;;;;;;;77.77;51.20;;;;;;;;;;5076169;28;20963;-84
2023/02/11 09:03:01;;;;;;;71.67;50.87;;;;;;;;;;5083657;28;20463;-84
2023/02/11 09:05:30;;;;;;;73.57;48.53;;;;;;;;;;5102244;28;20807;-84
2023/02/11 09:07:57;;;;;;;45.97;35.75;;;;;;;;;;5089355;28;20485;-84
2023/02/11 09:10:24;;;;;;;71.20;49.70;;;;;;;;;;5078806;28;20210;-78
2023/02/11 09:12:50;;;;;;;74.93;51.27;;;;;;;;;;5078695;28;20486;-83
2023/02/11 09:15:17;;;;;;;88.20;55.00;;;;;;;;;;5081785;28;20452;-77
2023/02/11 09:17:44;;;;;;;69.23;45.43;;;;;;;;;;5074655;28;20470;-78
2023/02/11 09:20:11;;;;;;;67.73;47.93;;;;;;;;;;5074305;28;20416;-77
2023/02/11 09:22:40;;;;;;;56.60;41.63;;;;;;;;;;5075366;28;20870;-82
2023/02/11 09:25:07;;;;;;;59.87;46.53;;;;;;;;;;5082959;28;20990;-83
2023/02/11 09:27:34;;;;;;;34.27;29.73;;;;;;;;;;5081117;28;20461;-81
2023/02/11 09:30:01;;;;;;;83.07;51.63;;;;;;;;;;5080849;28;20454;-82
2023/02/11 09:32:28;;;;;;;74.23;52.27;;;;;;;;;;5080925;28;20478;-83
2023/02/11 09:34:55;;;;;;;82.83;49.57;;;;;;;;;;5081923;28;20500;-82
2023/02/11 09:37:22;;;;;;;77.60;52.73;;;;;;;;;;5079692;28;20472;-83
2023/02/11 09:39:51;;;;;;;52.83;38.20;;;;;;;;;;5081964;28;20504;-85
2023/02/11 09:42:26;;;;;;;85.43;51.27;;;;;;;;;;5078776;28;20203;-84
2023/02/11 09:44:53;;;;;;;70.30;49.10;;;;;;;;;;5080976;28;20451;-84
2023/02/11 09:47:24;;;;;;;91.13;56.50;;;;;;;;;;5080106;28;20483;-84
2023/02/11 09:49:53;;;;;;;89.97;54.63;;;;;;;;;;5081052;28;20259;-84
2023/02/11 09:52:25;;;;;;;60.83;42.40;;;;;;;;;;5080127;28;20225;-84
2023/02/11 09:54:55;;;;;;;60.70;43.10;;;;;;;;;;5080317;28;20977;-84
2023/02/11 09:57:24;;;;;;;86.15;53.97;;;;;;;;;;5101722;28;20618;-84
2023/02/11 09:59:51;;;;;;;65.20;44.43;;;;;;;;;;5102411;28;20549;-84
2023/02/11 10:02:22;;;;;;;75.70;51.70;;;;;;;;;;5100943;28;20440;-82
2023/02/11 10:04:56;;;;;;;83.03;53.73;;;;;;;;;;5100515;28;20434;-82
2023/02/11 10:07:25;;;;;;;67.25;47.30;;;;;;;;;;5094747;28;20442;-81
2023/02/11 10:09:59;;;;;;;41.00;35.05;;;;;;;;;;5096522;28;20258;-77
2023/02/11 10:12:36;;;;;;;59.33;43.35;;;;;;;;;;5097205;28;20226;-79
2023/02/11 10:15:11;;;;;;;88.28;52.63;;;;;;;;;;5097934;28;20222;-81
2023/02/11 10:17:40;;;;;;;68.50;43.60;;;;;;;;;;5097751;28;20274;-85
2023/02/11 10:20:15;;;;;;;47.57;39.67;;;;;;;;;;5094270;28;20444;-79
2023/02/11 10:22:45;;;;;;;84.40;51.67;;;;;;;;;;5095391;28;20463;-79
2023/02/11 10:25:18;;;;;;;71.13;49.83;;;;;;;;;;5095098;28;20250;-76
2023/02/11 10:27:45;;;;;;;72.23;46.17;;;;;;;;;;5094647;28;20898;-78
2023/02/11 10:30:19;;;;;;;72.57;46.70;;;;;;;;;;5093835;28;20449;-78
2023/02/11 10:32:48;;;;;;;70.30;50.55;;;;;;;;;;5093221;28;20493;-78
2023/02/11 10:35:16;;;;;;;80.82;53.53;;;;;;;;;;5095222;28;20226;-78
2023/02/11 10:37:43;;;;;;;78.63;52.90;;;;;;;;;;5094001;28;20209;-78
2023/02/11 10:40:14;;;;;;;67.55;49.83;;;;;;;;;;5093919;28;20468;-78
2023/02/11 10:42:44;;;;;;;72.10;49.23;;;;;;;;;;5093240;28;20187;-78
2023/02/11 10:45:17;;;;;;;84.13;55.40;;;;;;;;;;5093982;28;20449;-78
2023/02/11 10:47:44;;;;;;;66.07;44.53;;;;;;;;;;5094119;28;20440;-79
2023/02/11 10:50:19;;;;;;;74.50;44.20;;;;;;;;;;5094947;28;20475;-78
2023/02/11 10:52:46;;;;;;;68.60;47.22;;;;;;;;;;5092570;28;20459;-77
2023/02/11 10:55:16;;;;;;;76.15;52.88;;;;;;;;;;5093384;28;20242;-78
2023/02/11 10:57:51;;;;;;;73.75;51.05;;;;;;;;;;5093615;28;20202;-78
2023/02/11 11:00:24;;;;;;;88.80;54.75;;;;;;;;;;5093484;28;20175;-78
2023/02/11 11:02:56;;;;;;;77.97;53.60;;;;;;;;;;5092904;28;20214;-78
2023/02/11 11:05:27;;;;;;;53.47;41.40;;;;;;;;;;5093527;28;20473;-78
2023/02/11 11:07:55;;;;;;;64.67;46.90;;;;;;;;;;5093521;28;20210;-78
2023/02/11 11:10:30;;;;;;;80.70;52.77;;;;;;;;;;5093467;28;20415;-78
2023/02/11 11:12:59;;;;;;;72.77;51.00;;;;;;;;;;5092875;28;20474;-78
2023/02/11 11:15:27;;;;;;;70.83;51.83;;;;;;;;;;5093639;28;20440;-78
2023/02/11 11:18:10;;;;;;;68.67;46.93;;;;;;;;;;5094095;28;20850;-78
2023/02/11 11:20:37;;;;;;;72.40;49.50;;;;;;;;;;5096866;28;20906;-78
2023/02/11 11:23:10;;;;;;;82.77;55.30;;;;;;;;;;5096440;28;20418;-78
2023/02/11 11:25:38;;;;;;;47.67;40.07;;;;;;;;;;5096559;28;20974;-78
2023/02/11 11:28:07;;;;;;;80.60;55.10;;;;;;;;;;5097142;28;20456;-79
2023/02/11 11:30:39;;;;;;;68.50;45.07;;;;;;;;;;5097039;28;20431;-78
2023/02/11 11:33:16;;;;;;;94.47;55.50;;;;;;;;;;5096043;28;20446;-78
2023/02/11 11:35:43;;;;;;;65.60;49.70;;;;;;;;;;5096793;28;20468;-78
2023/02/11 11:38:13;;;;;;;63.97;47.20;;;;;;;;;;5096769;28;20194;-78
2023/02/11 11:40:41;;;;;;;59.73;43.40;;;;;;;;;;5097459;28;20466;-78
2023/02/11 11:43:19;;;;;;;81.40;55.40;;;;;;;;;;5096378;28;20403;-78
2023/02/11 11:45:54;;;;;;;71.20;48.47;;;;;;;;;;5096763;28;20537;-78
2023/02/11 11:48:23;;;;;;;60.20;42.05;;;;;;;;;;5097648;28;20190;-78
2023/02/11 11:50:52;;;;;;;85.03;54.38;;;;;;;;;;5097081;28;20205;-78
2023/02/11 11:53:23;;;;;;;76.07;51.80;;;;;;;;;;5095797;28;20629;-78
2023/02/11 11:55:53;;;;;;;91.10;55.63;;;;;;;;;;5096974;28;20443;-79
2023/02/11 11:58:22;;;;;;;63.97;45.57;;;;;;;;;;5097243;28;20954;-78
2023/02/11 12:00:54;;;;;;;77.83;50.87;;;;;;;;;;5096873;28;20462;-78
2023/02/11 12:03:34;;;;;;;59.53;44.10;;;;;;;;;;5096351;28;20460;-79
2023/02/11 12:06:13;;;;;;;69.40;49.20;;;;;;;;;;5096348;28;20520;-79
2023/02/11 12:08:44;;;;;;;54.90;41.22;;;;;;;;;;5097185;28;20187;-79
2023/02/11 12:11:15;;;;;;;71.23;52.30;;;;;;;;;;5096657;28;20256;-79
2023/02/11 12:13:48;;;;;;;65.47;48.10;;;;;;;;;;5097013;28;20438;-79
2023/02/11 12:16:21;;;;;;;50.47;40.30;;;;;;;;;;5095835;28;20485;-78
2023/02/11 12:18:58;;;;;;;69.97;49.83;;;;;;;;;;5096598;28;20505;-79
2023/02/11 12:21:29;;;;;;;37.03;32.23;;;;;;;;;;5095767;28;20490;-79
2023/02/11 12:24:04;;;;;;;36.92;33.28;;;;;;;;;;5096429;28;20403;-78
2023/02/11 12:26:33;;;;;;;75.10;48.17;;;;;;;;;;5096246;28;20226;-78
2023/02/11 12:29:06;;;;;;;67.40;46.42;;;;;;;;;;5095892;28;20426;-78
2023/02/11 12:31:42;;;;;;;54.03;41.73;;;;;;;;;;5095776;28;20195;-79
2023/02/11 12:34:17;;;;;;;52.10;38.83;;;;;;;;;;5095746;28;20952;-79
2023/02/11 12:36:54;;;;;;;50.10;41.20;;;;;;;;;;5096215;28;20469;-79
2023/02/11 12:39:26;;;;;;;56.60;43.90;;;;;;;;;;5096095;28;20633;-78
2023/02/11 12:44:59;;;;;;;61.37;44.97;;;;;;;;;;5096213;28;20478;-79
2023/02/11 12:47:29;;;;;;;57.77;40.27;;;;;;;;;;5096066;28;20909;-79
2023/02/11 12:50:01;;;;;;;52.57;43.87;;;;;;;;;;5096197;28;20452;-79
2023/02/11 12:52:36;;;;;;;55.67;43.90;;;;;;;;;;5095545;28;20512;-79
2023/02/11 12:55:05;;;;;;;56.10;44.40;;;;;;;;;;5096018;28;20886;-79
2023/02/11 12:57:33;;;;;;;54.97;39.83;;;;;;;;;;5096029;28;20426;-79
2023/02/11 13:00:04;;;;;;;54.00;43.67;;;;;;;;;;5095987;28;20207;-79
2023/02/11 13:02:34;;;;;;;53.23;38.80;;;;;;;;;;5095092;28;20435;-79
2023/02/11 13:05:04;;;;;;;45.40;37.40;;;;;;;;;;5095466;28;20881;-79
2023/02/11 13:07:35;;;;;;;52.03;43.20;;;;;;;;;;5095780;28;20473;-78
2023/02/11 13:10:06;;;;;;;57.47;41.77;;;;;;;;;;5095600;28;20436;-79
2023/02/11 13:15:20;;;;;;;49.77;39.97;;;;;;;;;;5095385;28;20466;-79
2023/02/11 13:17:50;;;;;;;44.53;36.57;;;;;;;;;;5096170;28;20806;-79
2023/02/11 13:20:29;;;;;;;51.37;36.83;;;;;;;;;;5096467;28;20445;-83
2023/02/11 13:22:59;;;;;;;35.03;31.23;;;;;;;;;;5091330;28;20507;-86
2023/02/11 13:25:30;;;;;;;44.30;38.63;;;;;;;;;;5094905;28;20472;-86
2023/02/11 13:28:01;;;;;;;51.70;41.30;;;;;;;;;;5103058;28;20455;-85
2023/02/11 13:30:32;;;;;;;57.40;41.47;;;;;;;;;;5082220;28;20420;-85
2023/02/11 13:33:07;;;;;;;49.53;41.83;;;;;;;;;;5082588;28;20479;-85
2023/02/11 13:35:35;;;;;;;50.47;42.43;;;;;;;;;;5083626;28;20440;-85
2023/02/11 13:38:03;;;;;;;49.93;39.13;;;;;;;;;;5082833;28;20424;-85
2023/02/11 13:40:31;;;;;;;50.27;40.27;;;;;;;;;;5082430;28;20424;-85
2023/02/11 13:43:00;;;;;;;44.30;39.43;;;;;;;;;;5083193;28;20420;-85
2023/02/11 13:45:31;;;;;;;48.53;39.80;;;;;;;;;;5084380;28;20481;-85
2023/02/11 13:47:59;;;;;;;55.70;40.13;;;;;;;;;;5084227;28;20440;-87
2023/02/11 13:50:26;;;;;;;56.70;43.33;;;;;;;;;;5083526;28;20427;-86
2023/02/11 13:52:57;;;;;;;55.47;41.27;;;;;;;;;;5075220;28;20568;-77
2023/02/11 13:55:26;;;;;;;49.03;39.33;;;;;;;;;;5073946;28;20497;-77
2023/02/11 13:58:08;;;;;;;50.07;41.70;;;;;;;;;;5073974;28;20866;-77
2023/02/11 14:00:47;;;;;;;50.40;37.00;;;;;;;;;;5073618;28;20456;-77
2023/02/11 14:09:01;;;;;;;49.30;39.90;;;;;;;;;;5073422;28;20379;-77
2023/02/11 14:11:45;;;;;;;40.83;36.30;;;;;;;;;;5072930;28;20469;-77
2023/02/11 14:14:17;;;;;;;52.40;41.90;;;;;;;;;;5073569;28;20866;-77
2023/02/11 14:17:03;;;;;;;54.30;41.40;;;;;;;;;;5073455;28;20879;-77
2023/02/11 14:19:35;;;;;;;45.47;39.43;;;;;;;;;;5073533;28;20460;-77
2023/02/11 14:22:03;;;;;;;56.73;44.03;;;;;;;;;;5073105;28;20436;-77
2023/02/11 14:24:47;;;;;;;47.23;41.03;;;;;;;;;;5073615;28;20446;-77
2023/02/11 14:27:19;;;;;;;50.63;43.37;;;;;;;;;;5073742;28;20487;-78
2023/02/11 14:29:50;;;;;;;56.50;39.97;;;;;;;;;;5073872;28;20733;-77
2023/02/11 14:32:20;;;;;;;44.77;38.27;;;;;;;;;;5072797;28;20429;-77
2023/02/11 14:34:54;;;;;;;45.73;38.83;;;;;;;;;;5072968;28;20527;-77
2023/02/11 14:37:28;;;;;;;64.17;45.77;;;;;;;;;;5073746;28;20466;-77
2023/02/11 14:39:58;;;;;;;45.30;39.97;;;;;;;;;;5073425;28;20437;-77
2023/02/11 14:42:27;;;;;;;48.97;37.20;;;;;;;;;;5072512;28;20511;-77
2023/02/11 14:44:56;;;;;;;44.07;38.57;;;;;;;;;;5073008;28;20812;-77